Beaver River, New York
Current Conditions -  °F | °C
As of 10:14 AM on Friday 19 Dec 2014 (Local Time) from KGTB Reporting Station
Unknown Precip Unknown Precip  
Wind Chill: 21°   Ceiling: 1000
Heat Index: 21°   Visibility: 10mi
Dew Point: 18°   Wind: 3mph
Humidity: 86%   Direction: NA
Pressure: 30.11"   Gusts: NA
Location:  43.7565°N, 75.5938°W
Report Text: KGTB 191514Z AUTO VRB03KT 10SM UP OVC010 M06/M08 A3011 RMK AO2
Loading
Personal Weather Stations






























Interactive Weather Map New forecast layout! Learn more

10-Day Weather Forecast

Advertisements
Track Severe Weather on mobile